Time;durP1;ratioP1;P1;durP2;ratioP2;P2;SDS_P1;SDS_P2;PMS_P1;PMS_P2;Temp;Humidity;BMP_temperature;BMP_pressure;BME280_temperature;BME280_humidity;BME280_pressure;Samples;Min_cycle;Max_cycle;Signal;HPM_P1;HPM_P2
2021/09/02 00:01:12;;;;;;;11.38;6.03;;;13.80;97.00;;;;;;4992310;28;20030;-56
2021/09/02 00:03:38;;;;;;;11.73;6.60;;;13.80;97.10;;;;;;4974739;28;20374;-56
2021/09/02 00:06:04;;;;;;;9.98;5.93;;;13.80;97.20;;;;;;4992136;28;20039;-56
2021/09/02 00:08:30;;;;;;;10.15;5.82;;;13.70;97.20;;;;;;4973880;28;20061;-56
2021/09/02 00:11:00;;;;;;;12.75;6.82;;;13.70;97.20;;;;;;4974010;28;20053;-56
2021/09/02 00:13:27;;;;;;;10.63;6.40;;;13.70;97.30;;;;;;4990239;28;20425;-56
2021/09/02 00:15:52;;;;;;;8.68;5.13;;;13.70;97.30;;;;;;4984431;28;20038;-56
2021/09/02 00:18:18;;;;;;;9.63;5.70;;;13.70;97.40;;;;;;4991932;28;20383;-52
2021/09/02 00:20:44;;;;;;;9.60;4.40;;;13.60;97.30;;;;;;4992021;28;20580;-54
2021/09/02 00:23:09;;;;;;;7.95;4.53;;;13.60;97.20;;;;;;4958848;28;20042;-52
2021/09/02 00:25:35;;;;;;;7.88;4.40;;;13.50;97.00;;;;;;4972981;28;20108;-54
2021/09/02 00:28:01;;;;;;;11.07;4.15;;;13.50;97.00;;;;;;4940713;28;20054;-50
2021/09/02 00:30:27;;;;;;;6.28;3.90;;;13.40;97.00;;;;;;4991447;28;20038;-50
2021/09/02 00:32:52;;;;;;;4.55;3.20;;;13.40;96.90;;;;;;4992262;28;20129;-56
2021/09/02 00:35:18;;;;;;;4.88;3.40;;;13.40;97.00;;;;;;4991527;28;20061;-55
2021/09/02 00:37:43;;;;;;;9.23;4.80;;;13.30;97.10;;;;;;4991735;28;20041;-56
2021/09/02 00:40:09;;;;;;;9.60;5.40;;;13.30;97.00;;;;;;4974029;28;20042;-56
2021/09/02 00:42:35;;;;;;;8.50;4.47;;;13.20;97.10;;;;;;4991556;28;20491;-56
2021/09/02 00:45:01;;;;;;;8.30;3.50;;;13.20;97.10;;;;;;4991651;28;20031;-56
2021/09/02 00:47:26;;;;;;;5.00;3.58;;;13.20;97.10;;;;;;4976719;28;20053;-54
2021/09/02 00:49:55;;;;;;;4.93;3.40;;;13.10;97.00;;;;;;4995442;28;20042;-54
2021/09/02 00:52:30;;;;;;;7.60;4.75;;;13.10;97.00;;;;;;4948729;28;20047;-54
2021/09/02 00:55:00;;;;;;;6.75;3.25;;;13.10;97.00;;;;;;4995449;28;20045;-55
2021/09/02 00:57:30;;;;;;;6.53;2.80;;;13.10;97.00;;;;;;4964278;28;20043;-55
2021/09/02 01:00:06;;;;;;;4.35;2.13;;;13.00;96.80;;;;;;4994595;28;20053;-54
2021/09/02 01:02:31;;;;;;;3.20;2.33;;;12.90;96.70;;;;;;4995505;28;20070;-56
2021/09/02 01:05:02;;;;;;;3.00;2.17;;;12.80;96.70;;;;;;4995213;28;20038;-53
2021/09/02 01:07:32;;;;;;;2.37;1.90;;;12.80;96.80;;;;;;4995358;28;20053;-50
2021/09/02 01:10:03;;;;;;;3.35;2.30;;;12.80;96.80;;;;;;4977565;28;20282;-53
2021/09/02 01:12:35;;;;;;;4.55;2.70;;;12.70;96.80;;;;;;4994831;28;20054;-52
2021/09/02 01:15:04;;;;;;;3.92;2.80;;;12.70;96.90;;;;;;4994602;28;20041;-53
2021/09/02 01:17:30;;;;;;;6.20;3.72;;;12.70;97.10;;;;;;4994236;28;20495;-54
2021/09/02 01:19:56;;;;;;;6.68;4.25;;;12.70;97.40;;;;;;4994718;28;20165;-55
2021/09/02 01:22:26;;;;;;;4.55;2.92;;;12.70;97.10;;;;;;4977479;28;20129;-53
2021/09/02 01:24:54;;;;;;;3.92;2.50;;;12.70;97.10;;;;;;4994512;28;20039;-54
2021/09/02 01:27:20;;;;;;;3.47;2.33;;;12.70;97.10;;;;;;4994448;28;20046;-53
2021/09/02 01:29:51;;;;;;;8.45;3.85;;;12.70;96.90;;;;;;4994416;28;20096;-52
2021/09/02 01:32:17;;;;;;;12.82;4.57;;;12.60;96.90;;;;;;4993932;28;20450;-51
2021/09/02 01:34:43;;;;;;;4.90;2.38;;;12.60;97.10;;;;;;4994056;28;20042;-53
2021/09/02 01:37:08;;;;;;;3.63;2.00;;;12.60;97.00;;;;;;4994322;28;20120;-54
2021/09/02 01:39:34;;;;;;;1.90;1.50;;;12.50;96.90;;;;;;4989039;28;20079;-50
2021/09/02 01:41:59;;;;;;;1.50;1.40;;;12.40;96.80;;;;;;4980957;28;21373;-53
2021/09/02 01:44:25;;;;;;;2.83;1.63;;;12.40;96.80;;;;;;4975942;28;20446;-50
2021/09/02 01:46:50;;;;;;;1.98;1.55;;;12.40;96.70;;;;;;4993341;28;20561;-50
2021/09/02 01:49:16;;;;;;;1.77;1.40;;;12.30;96.70;;;;;;4993746;28;20026;-50
2021/09/02 01:51:44;;;;;;;1.20;1.10;;;12.30;96.80;;;;;;4993878;28;20034;-50
2021/09/02 01:54:10;;;;;;;1.67;1.20;;;12.20;96.80;;;;;;4986147;28;20050;-49
2021/09/02 01:56:36;;;;;;;2.80;1.90;;;12.20;96.80;;;;;;4981673;28;20034;-52
2021/09/02 01:59:03;;;;;;;3.78;2.30;;;12.10;96.80;;;;;;4959024;28;20061;-48
2021/09/02 02:01:28;;;;;;;3.35;2.58;;;12.10;96.90;;;;;;4992680;28;20035;-48
2021/09/02 02:03:54;;;;;;;3.67;2.47;;;12.00;97.00;;;;;;4992894;28;20038;-49
2021/09/02 02:06:19;;;;;;;5.43;2.80;;;12.00;97.00;;;;;;4992918;28;20059;-50
2021/09/02 02:08:45;;;;;;;6.93;3.60;;;12.00;97.00;;;;;;4993519;28;20042;-50
2021/09/02 02:11:10;;;;;;;9.45;4.28;;;12.00;97.10;;;;;;4959261;28;20034;-48
2021/09/02 02:13:36;;;;;;;7.60;4.28;;;12.00;97.20;;;;;;4993272;28;20039;-52
2021/09/02 02:16:02;;;;;;;7.85;4.63;;;12.00;97.20;;;;;;4992899;28;20045;-49
2021/09/02 02:18:28;;;;;;;7.82;4.57;;;12.00;97.30;;;;;;4956604;28;20050;-53
2021/09/02 02:20:53;;;;;;;9.30;4.95;;;12.00;97.20;;;;;;4969183;28;20046;-49
2021/09/02 02:23:19;;;;;;;5.85;3.95;;;12.00;97.20;;;;;;4975377;28;20034;-54
2021/09/02 02:25:45;;;;;;;6.50;3.88;;;12.00;97.20;;;;;;4959222;28;20410;-50
2021/09/02 02:28:11;;;;;;;5.75;3.38;;;12.00;97.10;;;;;;4974866;28;20049;-52
2021/09/02 02:30:37;;;;;;;5.03;3.33;;;12.00;97.00;;;;;;4975214;28;20454;-50
2021/09/02 02:33:03;;;;;;;6.35;4.13;;;11.90;97.00;;;;;;4992650;28;20100;-53
2021/09/02 02:35:30;;;;;;;7.03;3.72;;;11.90;97.00;;;;;;4974995;28;20038;-50
2021/09/02 02:37:56;;;;;;;7.68;4.28;;;11.90;97.10;;;;;;4975238;28;20585;-54
2021/09/02 02:40:22;;;;;;;8.88;4.13;;;11.90;97.10;;;;;;4942426;28;20034;-51
2021/09/02 02:42:48;;;;;;;7.45;4.03;;;11.90;97.10;;;;;;4992572;28;20038;-53
2021/09/02 02:45:14;;;;;;;7.85;4.30;;;11.90;97.10;;;;;;4956786;28;20046;-51
2021/09/02 02:47:40;;;;;;;6.32;3.40;;;11.80;97.00;;;;;;4992916;28;20053;-51
2021/09/02 02:50:06;;;;;;;6.18;3.58;;;11.80;97.00;;;;;;4992623;28;20042;-53
2021/09/02 02:52:32;;;;;;;5.60;3.50;;;11.80;96.90;;;;;;4963579;28;20070;-56
2021/09/02 02:54:57;;;;;;;6.78;3.28;;;11.80;96.80;;;;;;4958735;28;20084;-54
2021/09/02 02:57:24;;;;;;;7.22;3.50;;;11.80;96.80;;;;;;4974657;28;20053;-53
2021/09/02 02:59:49;;;;;;;4.43;2.60;;;11.80;96.80;;;;;;4975003;28;20034;-51
2021/09/02 03:02:15;;;;;;;5.10;2.83;;;11.80;96.80;;;;;;4991359;28;20403;-55
2021/09/02 03:04:41;;;;;;;4.90;3.15;;;11.70;96.70;;;;;;4958523;28;20049;-52
2021/09/02 03:07:06;;;;;;;4.30;2.80;;;11.70;96.70;;;;;;4974887;28;20070;-52
2021/09/02 03:09:32;;;;;;;5.05;2.90;;;11.70;96.80;;;;;;4974569;28;20030;-52
2021/09/02 03:11:58;;;;;;;5.40;3.20;;;11.60;96.70;;;;;;4958281;28;20046;-53
2021/09/02 03:14:23;;;;;;;5.00;2.30;;;11.60;96.80;;;;;;4991666;28;20054;-53
2021/09/02 03:16:49;;;;;;;4.22;2.03;;;11.60;96.80;;;;;;4992236;28;20113;-54
2021/09/02 03:19:14;;;;;;;3.05;2.20;;;11.50;96.80;;;;;;4991730;28;20505;-53
2021/09/02 03:21:40;;;;;;;3.90;2.50;;;11.50;96.80;;;;;;4984926;28;20045;-53
2021/09/02 03:24:06;;;;;;;7.50;3.80;;;11.40;96.80;;;;;;4968361;28;20442;-53
2021/09/02 03:26:32;;;;;;;4.80;3.10;;;11.40;96.90;;;;;;4991646;28;20042;-53
2021/09/02 03:28:57;;;;;;;5.25;3.17;;;11.40;96.90;;;;;;4974399;28;20042;-58
2021/09/02 03:31:23;;;;;;;6.82;3.53;;;11.30;97.00;;;;;;4991577;28;20237;-58
2021/09/02 03:33:48;;;;;;;7.38;3.58;;;11.30;97.10;;;;;;4992050;28;20038;-57
2021/09/02 03:36:14;;;;;;;8.57;4.15;;;11.40;97.20;;;;;;4992017;28;20038;-55
2021/09/02 03:38:40;;;;;;;6.50;3.55;;;11.30;97.20;;;;;;4957925;28;20082;-55
2021/09/02 03:41:06;;;;;;;5.68;3.10;;;11.30;97.30;;;;;;4959482;28;20046;-55
2021/09/02 03:43:31;;;;;;;4.30;2.88;;;11.30;97.30;;;;;;4991005;28;20538;-50
2021/09/02 03:45:57;;;;;;;4.78;2.22;;;11.30;97.20;;;;;;4991268;28;20526;-50
2021/09/02 03:48:23;;;;;;;3.90;2.40;;;11.30;97.10;;;;;;4991470;28;20034;-52
2021/09/02 03:50:48;;;;;;;6.50;2.85;;;11.30;97.10;;;;;;4991275;28;20042;-52
2021/09/02 03:53:19;;;;;;;4.18;2.88;;;11.30;97.10;;;;;;4972908;28;20050;-50
2021/09/02 03:55:45;;;;;;;5.03;2.90;;;11.30;97.10;;;;;;4974844;28;20153;-53
2021/09/02 03:58:11;;;;;;;6.43;3.30;;;11.30;97.10;;;;;;4991284;28;20124;-50
2021/09/02 04:00:36;;;;;;;5.22;2.85;;;11.30;97.20;;;;;;4982978;28;20109;-52
2021/09/02 04:03:03;;;;;;;6.28;3.03;;;11.30;97.20;;;;;;4991298;28;20173;-49
2021/09/02 04:05:28;;;;;;;5.10;2.65;;;11.30;97.30;;;;;;4990863;28;20434;-51
2021/09/02 04:07:54;;;;;;;4.25;2.50;;;11.30;97.20;;;;;;4974332;28;20115;-49
2021/09/02 04:10:20;;;;;;;2.78;2.00;;;11.30;97.10;;;;;;4957910;28;20528;-48
2021/09/02 04:12:45;;;;;;;3.25;2.17;;;11.30;97.10;;;;;;4974307;28;20121;-50
2021/09/02 04:15:11;;;;;;;3.42;1.98;;;11.30;97.00;;;;;;4957704;28;20046;-51
2021/09/02 04:17:37;;;;;;;4.03;2.22;;;11.30;97.10;;;;;;4988929;28;20041;-52
2021/09/02 04:20:04;;;;;;;3.85;2.42;;;11.30;97.10;;;;;;4962749;28;20030;-52
2021/09/02 04:22:29;;;;;;;5.20;2.60;;;11.30;97.10;;;;;;4976671;28;20379;-50
2021/09/02 04:24:55;;;;;;;4.97;2.63;;;11.30;97.10;;;;;;4961071;28;20046;-51
2021/09/02 04:27:21;;;;;;;3.83;2.53;;;11.40;97.30;;;;;;4995113;28;20046;-50
2021/09/02 04:29:47;;;;;;;4.63;2.70;;;11.40;97.40;;;;;;4994702;28;20034;-50
2021/09/02 04:32:12;;;;;;;3.28;2.17;;;11.40;97.50;;;;;;4995144;28;20066;-50
2021/09/02 04:34:38;;;;;;;4.85;2.60;;;11.40;97.40;;;;;;4961380;28;20042;-55
2021/09/02 04:37:05;;;;;;;3.65;2.60;;;11.40;97.50;;;;;;4977131;28;20634;-56
2021/09/02 04:39:30;;;;;;;4.10;2.55;;;11.50;97.50;;;;;;4994664;28;20041;-56
2021/09/02 04:41:56;;;;;;;3.63;2.63;;;11.50;97.50;;;;;;4994771;28;20030;-48
2021/09/02 04:44:22;;;;;;;3.72;2.78;;;11.50;97.50;;;;;;4977472;28;20482;-50
2021/09/02 04:46:48;;;;;;;3.60;2.42;;;11.50;97.60;;;;;;4941169;28;20078;-56
2021/09/02 04:49:13;;;;;;;3.28;2.33;;;11.60;97.60;;;;;;4976594;28;20101;-55
2021/09/02 04:51:39;;;;;;;4.40;2.83;;;11.60;97.50;;;;;;4994388;28;20301;-56
2021/09/02 04:54:05;;;;;;;5.20;2.60;;;11.60;97.60;;;;;;4960556;28;20035;-57
2021/09/02 04:56:30;;;;;;;4.05;2.70;;;11.70;97.60;;;;;;4994545;28;20112;-56
2021/09/02 04:58:56;;;;;;;5.60;3.28;;;11.70;98.00;;;;;;4993522;28;20062;-54
2021/09/02 05:01:22;;;;;;;4.78;2.97;;;11.70;97.90;;;;;;4995154;28;20034;-54
2021/09/02 05:03:47;;;;;;;3.40;2.60;;;11.70;97.90;;;;;;4994540;28;20038;-50
2021/09/02 05:06:13;;;;;;;4.55;3.00;;;11.80;98.10;;;;;;4976754;28;20052;-54
2021/09/02 05:08:38;;;;;;;8.40;4.18;;;11.80;98.00;;;;;;4993786;28;20249;-53
2021/09/02 05:11:04;;;;;;;7.00;4.97;;;11.80;98.00;;;;;;4994485;28;20116;-53
2021/09/02 05:13:29;;;;;;;8.90;6.05;;;11.90;98.10;;;;;;4994455;28;20038;-50
2021/09/02 05:15:55;;;;;;;12.05;6.00;;;12.00;98.20;;;;;;4993639;28;20038;-53
2021/09/02 05:18:20;;;;;;;10.02;6.30;;;12.00;98.30;;;;;;4994265;28;20038;-53
2021/09/02 05:20:46;;;;;;;10.85;6.70;;;12.10;98.40;;;;;;4993778;28;20073;-54
2021/09/02 05:23:12;;;;;;;10.80;6.40;;;12.10;98.40;;;;;;4962948;28;20043;-54
2021/09/02 05:25:38;;;;;;;9.00;6.10;;;12.20;98.70;;;;;;4986237;28;20050;-51
2021/09/02 05:28:03;;;;;;;10.20;5.88;;;12.20;98.50;;;;;;4993756;28;20048;-54
2021/09/02 05:30:29;;;;;;;10.65;6.35;;;12.20;98.50;;;;;;4994161;28;20038;-53
2021/09/02 05:32:55;;;;;;;11.88;6.57;;;12.30;98.50;;;;;;4975359;28;20042;-53
2021/09/02 05:35:20;;;;;;;17.27;7.15;;;12.30;98.70;;;;;;4960016;28;20117;-54
2021/09/02 05:37:46;;;;;;;9.90;6.50;;;12.40;98.60;;;;;;4993863;28;20096;-50
2021/09/02 05:40:12;;;;;;;11.98;6.85;;;12.40;98.70;;;;;;4955070;28;20094;-53
2021/09/02 05:42:38;;;;;;;12.70;7.00;;;12.50;98.70;;;;;;4977558;28;20082;-53
2021/09/02 05:45:05;;;;;;;12.00;6.82;;;12.50;98.70;;;;;;4984653;28;20114;-50
2021/09/02 05:47:31;;;;;;;10.25;6.20;;;12.60;98.80;;;;;;4993402;28;20391;-50
2021/09/02 05:49:57;;;;;;;12.70;6.75;;;12.60;98.80;;;;;;4959733;28;20073;-54
2021/09/02 05:52:23;;;;;;;12.48;7.07;;;12.70;98.90;;;;;;4993286;28;20069;-52
2021/09/02 05:54:53;;;;;;;10.80;6.93;;;12.70;98.80;;;;;;4975880;28;20512;-49
2021/09/02 05:57:21;;;;;;;11.55;6.93;;;12.70;98.70;;;;;;4992862;28;20116;-51
2021/09/02 05:59:46;;;;;;;14.27;7.35;;;12.80;98.70;;;;;;4993555;28;20034;-56
2021/09/02 06:02:12;;;;;;;12.40;7.10;;;12.80;98.70;;;;;;4993102;28;20414;-56
2021/09/02 06:04:38;;;;;;;13.65;7.30;;;12.80;98.70;;;;;;4976336;28;20529;-55
2021/09/02 06:07:04;;;;;;;14.82;7.97;;;12.90;98.70;;;;;;4975855;28;20038;-56
2021/09/02 06:09:29;;;;;;;13.18;7.90;;;12.90;98.80;;;;;;4993261;28;20049;-55
2021/09/02 06:11:55;;;;;;;14.73;7.43;;;13.00;98.80;;;;;;4993289;28;20046;-55
2021/09/02 06:14:20;;;;;;;11.95;7.15;;;13.00;98.80;;;;;;4993812;28;20407;-50
2021/09/02 06:16:46;;;;;;;12.02;7.28;;;13.10;98.90;;;;;;4993430;28;20049;-51
2021/09/02 06:19:11;;;;;;;11.27;7.07;;;13.10;98.80;;;;;;4994054;28;20087;-50
2021/09/02 06:21:37;;;;;;;11.10;6.65;;;13.20;98.90;;;;;;4969714;28;20046;-48
2021/09/02 06:24:03;;;;;;;11.45;7.03;;;13.20;98.90;;;;;;4986546;28;20049;-49
2021/09/02 06:26:29;;;;;;;10.52;7.13;;;13.30;98.90;;;;;;4993802;28;20038;-48
2021/09/02 06:28:54;;;;;;;12.85;7.55;;;13.30;99.00;;;;;;4976174;28;20399;-48
2021/09/02 06:31:20;;;;;;;14.35;7.88;;;13.40;99.00;;;;;;4993683;28;20035;-52
2021/09/02 06:33:45;;;;;;;13.10;8.40;;;13.40;98.90;;;;;;4995653;28;20034;-48
2021/09/02 06:36:11;;;;;;;12.85;7.88;;;13.50;99.00;;;;;;4974947;28;20450;-56
2021/09/02 06:38:37;;;;;;;14.27;7.72;;;13.50;98.90;;;;;;4989469;28;20069;-50
2021/09/02 06:41:03;;;;;;;12.00;8.02;;;13.60;98.90;;;;;;4976431;28;20506;-50
2021/09/02 06:43:28;;;;;;;13.45;8.07;;;13.60;98.80;;;;;;4988840;28;20031;-54
2021/09/02 06:45:54;;;;;;;13.93;8.02;;;13.70;98.90;;;;;;4993636;28;20178;-54
2021/09/02 06:48:19;;;;;;;14.60;8.65;;;13.70;98.90;;;;;;4993729;28;20419;-54
2021/09/02 06:50:45;;;;;;;14.65;8.20;;;13.80;98.90;;;;;;4993332;28;20239;-54
2021/09/02 06:53:11;;;;;;;16.00;8.77;;;13.80;99.00;;;;;;4992246;28;20100;-52
2021/09/02 06:55:36;;;;;;;12.57;7.82;;;13.90;99.00;;;;;;4971488;28;20045;-52
2021/09/02 06:58:02;;;;;;;14.98;8.55;;;14.00;98.90;;;;;;4976224;28;20201;-51
2021/09/02 07:00:28;;;;;;;12.82;8.35;;;14.00;99.00;;;;;;4976580;28;20041;-52
2021/09/02 07:02:54;;;;;;;15.35;9.02;;;14.10;99.00;;;;;;4994310;28;20036;-53
2021/09/02 07:05:21;;;;;;;13.95;8.93;;;14.10;98.90;;;;;;4960479;28;20042;-54
2021/09/02 07:07:46;;;;;;;17.50;9.57;;;14.20;98.80;;;;;;4992549;28;20526;-54
2021/09/02 07:10:12;;;;;;;15.52;8.90;;;14.30;98.80;;;;;;4992804;28;20043;-53
2021/09/02 07:12:38;;;;;;;17.45;9.60;;;14.30;98.80;;;;;;4992111;28;20053;-54
2021/09/02 07:15:04;;;;;;;18.00;9.77;;;14.30;98.80;;;;;;4993475;28;20618;-52
2021/09/02 07:17:31;;;;;;;14.75;9.52;;;14.40;98.90;;;;;;4995008;28;20041;-50
2021/09/02 07:19:57;;;;;;;13.70;9.20;;;14.50;98.90;;;;;;4994827;28;20030;-53
2021/09/02 07:22:23;;;;;;;18.52;9.85;;;14.50;98.80;;;;;;4976785;28;20108;-56
2021/09/02 07:24:49;;;;;;;14.95;9.57;;;14.60;98.70;;;;;;4960951;28;20100;-56
2021/09/02 07:27:16;;;;;;;19.25;9.93;;;14.60;98.70;;;;;;4977339;28;20129;-56
2021/09/02 07:29:42;;;;;;;18.70;9.75;;;14.70;98.60;;;;;;4978270;28;20034;-53
2021/09/02 07:32:08;;;;;;;14.30;9.23;;;14.80;98.50;;;;;;4994143;28;20042;-56
2021/09/02 07:34:33;;;;;;;18.23;10.07;;;14.80;98.50;;;;;;4959054;28;20118;-55
2021/09/02 07:36:59;;;;;;;15.00;9.50;;;14.90;98.30;;;;;;4975488;28;20042;-56
2021/09/02 07:39:25;;;;;;;14.93;9.35;;;14.90;98.20;;;;;;4993174;28;20038;-57
2021/09/02 07:41:50;;;;;;;15.50;8.77;;;15.00;98.20;;;;;;4971271;28;20049;-54
2021/09/02 07:44:16;;;;;;;15.98;9.43;;;15.00;98.10;;;;;;4983986;28;20073;-53
2021/09/02 07:46:42;;;;;;;17.55;9.23;;;15.10;98.00;;;;;;4992563;28;20042;-55
2021/09/02 07:49:08;;;;;;;16.95;9.15;;;15.10;98.10;;;;;;4993036;28;20531;-53
2021/09/02 07:51:33;;;;;;;16.15;10.50;;;15.10;98.00;;;;;;4961731;28;20144;-54
2021/09/02 07:53:59;;;;;;;18.38;10.45;;;15.20;98.00;;;;;;4990279;28;20122;-54
2021/09/02 07:56:25;;;;;;;18.23;10.25;;;15.30;97.90;;;;;;4965179;28;20042;-53
2021/09/02 07:58:52;;;;;;;19.92;11.77;;;15.30;97.90;;;;;;4986780;28;20045;-50
2021/09/02 08:01:22;;;;;;;18.85;12.38;;;15.40;97.80;;;;;;4994140;28;20518;-50
2021/09/02 08:03:49;;;;;;;20.55;11.18;;;15.40;97.70;;;;;;4979722;28;20046;-51
2021/09/02 08:06:14;;;;;;;21.40;10.45;;;15.40;97.50;;;;;;4985484;28;20414;-52
2021/09/02 08:08:40;;;;;;;15.32;9.43;;;15.50;97.60;;;;;;4997247;28;20042;-54
2021/09/02 08:11:05;;;;;;;18.13;9.75;;;15.50;97.60;;;;;;4995737;28;20046;-54
2021/09/02 08:13:31;;;;;;;14.88;9.10;;;15.60;97.80;;;;;;4978884;28;20054;-55
2021/09/02 08:15:57;;;;;;;16.77;9.10;;;15.60;97.40;;;;;;4997521;28;20042;-53
2021/09/02 08:18:22;;;;;;;20.15;9.23;;;15.60;97.40;;;;;;4996052;28;20026;-53
2021/09/02 08:20:48;;;;;;;19.23;8.88;;;15.70;97.20;;;;;;4966616;28;20410;-55
2021/09/02 08:23:14;;;;;;;15.77;8.52;;;15.70;97.10;;;;;;4998172;28;20039;-54
2021/09/02 08:25:40;;;;;;;15.77;8.27;;;15.80;97.00;;;;;;4948408;28;20513;-53
2021/09/02 08:28:05;;;;;;;18.38;8.45;;;15.70;97.10;;;;;;4983869;28;20046;-54
2021/09/02 08:30:31;;;;;;;16.58;9.00;;;15.70;97.20;;;;;;4997520;28;20049;-56
2021/09/02 08:32:57;;;;;;;16.75;8.32;;;15.80;97.20;;;;;;4983863;28;20046;-56
2021/09/02 08:35:26;;;;;;;16.20;8.27;;;15.80;97.20;;;;;;4976820;28;20089;-56
2021/09/02 08:37:56;;;;;;;18.73;8.80;;;15.90;97.10;;;;;;4974296;28;20092;-53
2021/09/02 08:40:26;;;;;;;14.40;8.40;;;15.90;96.80;;;;;;4998379;28;20053;-49
2021/09/02 08:42:54;;;;;;;22.50;9.95;;;16.00;96.50;;;;;;4983134;28;20045;-53
2021/09/02 08:45:20;;;;;;;18.63;8.75;;;16.00;96.60;;;;;;4989515;28;20051;-51
2021/09/02 08:47:48;;;;;;;16.52;8.40;;;16.10;96.70;;;;;;4979124;28;20042;-52
2021/09/02 08:50:20;;;;;;;17.73;9.25;;;16.10;96.70;;;;;;4996486;28;20117;-53
2021/09/02 08:52:47;;;;;;;17.42;8.65;;;16.10;96.60;;;;;;4970582;28;20054;-53
2021/09/02 08:55:14;;;;;;;21.23;9.23;;;16.20;96.40;;;;;;4981483;28;20531;-52
2021/09/02 08:57:40;;;;;;;19.38;9.18;;;16.20;96.20;;;;;;4992324;28;20071;-54
2021/09/02 09:00:07;;;;;;;17.00;8.52;;;16.30;96.10;;;;;;4959141;28;20076;-54
2021/09/02 09:02:33;;;;;;;16.48;8.32;;;16.30;95.90;;;;;;4997928;28;20049;-54
2021/09/02 09:05:03;;;;;;;20.17;9.45;;;16.40;95.80;;;;;;4995814;28;20405;-52
2021/09/02 09:07:32;;;;;;;18.42;9.07;;;16.40;95.10;;;;;;4995893;28;20395;-54
2021/09/02 09:09:58;;;;;;;18.85;9.25;;;16.40;95.00;;;;;;4996624;28;20076;-54
2021/09/02 09:12:39;;;;;;;19.85;8.73;;;16.50;95.00;;;;;;4999042;28;20038;-52
2021/09/02 09:15:07;;;;;;;19.48;8.80;;;16.60;94.30;;;;;;4998966;28;20049;-51
2021/09/02 09:17:33;;;;;;;17.77;8.68;;;16.60;94.20;;;;;;4998488;28;20043;-54
2021/09/02 09:19:59;;;;;;;19.73;8.80;;;16.80;93.60;;;;;;4979644;28;20034;-55
2021/09/02 09:22:29;;;;;;;16.85;9.10;;;16.80;91.40;;;;;;4962478;28;20034;-55
2021/09/02 09:25:14;;;;;;;19.13;8.75;;;16.90;91.80;;;;;;4947609;28;20046;-55
2021/09/02 09:27:50;;;;;;;20.50;8.48;;;16.90;91.80;;;;;;4996616;28;20061;-54
2021/09/02 09:30:15;;;;;;;23.15;8.57;;;16.90;91.30;;;;;;4994656;28;20101;-54
2021/09/02 09:32:41;;;;;;;18.38;8.35;;;16.90;91.00;;;;;;4995349;28;20074;-55
2021/09/02 09:35:12;;;;;;;18.15;8.63;;;16.90;90.60;;;;;;4986273;28;20073;-54
2021/09/02 09:37:38;;;;;;;15.43;8.45;;;16.90;89.00;;;;;;4994589;28;20053;-55
2021/09/02 09:40:15;;;;;;;20.88;9.10;;;16.90;89.20;;;;;;4993122;28;20038;-54
2021/09/02 09:43:14;;;;;;;16.05;8.35;;;16.90;89.30;;;;;;4985692;28;20034;-54
2021/09/02 09:45:44;;;;;;;19.35;8.55;;;16.90;89.80;;;;;;4994836;28;20061;-55
2021/09/02 09:48:22;;;;;;;15.85;8.43;;;16.90;90.10;;;;;;4964554;28;20045;-55
2021/09/02 09:51:17;;;;;;;22.42;9.05;;;17.00;89.60;;;;;;4997785;28;20046;-57
2021/09/02 09:53:46;;;;;;;17.20;8.45;;;17.00;89.20;;;;;;4996414;28;20064;-56
2021/09/02 09:56:17;;;;;;;21.10;8.75;;;16.90;90.00;;;;;;4989812;28;20506;-56
2021/09/02 09:58:45;;;;;;;20.65;9.05;;;17.00;89.90;;;;;;4985476;28;20380;-51
2021/09/02 10:01:12;;;;;;;17.10;8.95;;;17.00;89.80;;;;;;4992834;28;20046;-49
2021/09/02 10:03:39;;;;;;;19.83;8.75;;;17.00;89.60;;;;;;4995753;28;20034;-52
2021/09/02 10:06:07;;;;;;;21.15;9.05;;;17.00;89.70;;;;;;4972668;28;20046;-50
2021/09/02 10:08:38;;;;;;;19.17;8.52;;;17.10;89.50;;;;;;4996202;28;20038;-53
2021/09/02 10:11:06;;;;;;;19.15;9.10;;;17.20;89.50;;;;;;4971613;28;20042;-49
2021/09/02 10:13:36;;;;;;;24.75;9.55;;;17.20;89.20;;;;;;4975229;28;20069;-52
2021/09/02 10:16:04;;;;;;;20.52;9.40;;;17.30;88.80;;;;;;4996495;28;20053;-56
2021/09/02 10:18:32;;;;;;;20.73;9.23;;;17.40;88.80;;;;;;4947267;28;20042;-55
2021/09/02 10:21:08;;;;;;;19.85;8.77;;;17.60;88.30;;;;;;4964327;28;20045;-55
2021/09/02 10:23:34;;;;;;;19.40;8.13;;;17.80;87.10;;;;;;4981392;28;20034;-56
2021/09/02 10:26:00;;;;;;;15.38;8.13;;;18.10;87.40;;;;;;4984944;28;20049;-56
2021/09/02 10:28:29;;;;;;;16.25;7.78;;;18.30;86.70;;;;;;4984292;28;20042;-55
2021/09/02 10:31:21;;;;;;;18.70;8.63;;;18.50;83.00;;;;;;4961778;28;20121;-56
2021/09/02 10:33:47;;;;;;;17.50;8.65;;;18.60;82.70;;;;;;4996568;28;20042;-49
2021/09/02 10:36:15;;;;;;;18.05;8.20;;;18.70;82.40;;;;;;4994379;28;20049;-49
2021/09/02 10:38:54;;;;;;;18.70;9.05;;;18.80;81.60;;;;;;4995182;28;20034;-52
2021/09/02 10:41:37;;;;;;;20.58;8.80;;;18.90;79.50;;;;;;4963120;28;20168;-51
2021/09/02 10:44:08;;;;;;;17.35;8.23;;;18.90;79.50;;;;;;4976843;28;20498;-53
2021/09/02 10:46:42;;;;;;;16.50;8.25;;;19.00;77.80;;;;;;4961365;28;20061;-55
2021/09/02 10:49:14;;;;;;;17.38;8.50;;;19.00;78.60;;;;;;4993311;28;20046;-53
2021/09/02 10:51:57;;;;;;;16.98;8.50;;;19.00;78.60;;;;;;4996815;28;20145;-51
2021/09/02 10:54:36;;;;;;;16.92;8.10;;;19.10;76.80;;;;;;4991156;28;20403;-52
2021/09/02 10:57:09;;;;;;;13.93;7.85;;;19.20;79.20;;;;;;4988497;28;20045;-53
2021/09/02 10:59:43;;;;;;;17.08;7.72;;;19.30;79.30;;;;;;4996012;28;20045;-54
2021/09/02 11:02:29;;;;;;;20.20;8.88;;;19.50;79.60;;;;;;4996087;28;20042;-53
2021/09/02 11:05:00;;;;;;;16.80;8.27;;;19.60;79.10;;;;;;4982796;28;20046;-54
2021/09/02 11:07:37;;;;;;;17.13;8.27;;;19.60;79.10;;;;;;4993373;28;20049;-55
2021/09/02 11:10:10;;;;;;;16.30;8.18;;;19.70;78.80;;;;;;4960230;28;20054;-51
2021/09/02 11:12:36;;;;;;;18.55;8.32;;;19.80;78.50;;;;;;4976050;28;20068;-51
2021/09/02 11:15:02;;;;;;;14.50;7.80;;;19.80;78.10;;;;;;4994644;28;20503;-50
2021/09/02 11:17:27;;;;;;;15.65;7.72;;;19.90;77.50;;;;;;4976902;28;20042;-53
2021/09/02 11:19:53;;;;;;;17.02;8.70;;;19.90;77.90;;;;;;4993925;28;20414;-50
2021/09/02 11:22:19;;;;;;;15.88;8.25;;;20.00;78.00;;;;;;4993665;28;20097;-54
2021/09/02 11:24:52;;;;;;;17.05;8.20;;;20.10;75.40;;;;;;4992508;28;20498;-49
2021/09/02 11:27:30;;;;;;;15.50;8.13;;;20.20;75.60;;;;;;4994423;28;20085;-52
2021/09/02 11:30:18;;;;;;;19.52;8.18;;;20.20;75.60;;;;;;4994132;28;20113;-49
2021/09/02 11:32:50;;;;;;;15.77;8.00;;;20.20;75.40;;;;;;4988840;28;20105;-50
2021/09/02 11:35:16;;;;;;;14.15;8.07;;;20.30;76.60;;;;;;4983397;28;20034;-52
2021/09/02 11:37:43;;;;;;;18.13;8.55;;;20.30;76.60;;;;;;4986687;28;20066;-49
2021/09/02 11:40:20;;;;;;;15.50;7.40;;;20.50;75.50;;;;;;4990013;28;20061;-50
2021/09/02 11:42:46;;;;;;;17.10;8.68;;;20.50;75.60;;;;;;4992216;28;20053;-52
2021/09/02 11:45:16;;;;;;;17.10;8.32;;;20.60;75.30;;;;;;4962150;28;20129;-50
2021/09/02 11:47:42;;;;;;;15.48;8.30;;;20.60;72.90;;;;;;4975130;28;20042;-50
2021/09/02 11:50:08;;;;;;;15.65;8.52;;;20.60;74.10;;;;;;4991253;28;20383;-51
2021/09/02 11:52:42;;;;;;;18.52;8.23;;;20.60;73.50;;;;;;4993162;28;20137;-49
2021/09/02 11:55:26;;;;;;;16.38;7.93;;;20.70;73.70;;;;;;4990670;28;20109;-52
2021/09/02 11:57:57;;;;;;;16.35;8.15;;;20.70;71.30;;;;;;4974266;28;20042;-54
2021/09/02 12:00:23;;;;;;;13.68;7.55;;;20.70;72.40;;;;;;4991307;28;20072;-52
2021/09/02 12:02:53;;;;;;;24.05;8.15;;;20.70;73.40;;;;;;4992364;28;20479;-51
2021/09/02 12:05:21;;;;;;;17.83;7.63;;;20.70;73.20;;;;;;4990459;28;20045;-52
2021/09/02 12:07:49;;;;;;;16.50;7.95;;;20.70;72.90;;;;;;4974407;28;20050;-52
2021/09/02 12:10:18;;;;;;;20.15;7.65;;;20.70;73.10;;;;;;4991601;28;20042;-51
2021/09/02 12:12:44;;;;;;;16.77;8.80;;;20.60;73.60;;;;;;4974661;28;20479;-50
2021/09/02 12:15:23;;;;;;;16.10;7.95;;;20.60;73.90;;;;;;4991151;28;20049;-53
2021/09/02 12:17:49;;;;;;;17.13;7.47;;;20.70;74.40;;;;;;4974936;28;20145;-49
2021/09/02 12:20:24;;;;;;;15.93;8.48;;;20.80;74.90;;;;;;4991653;28;20049;-50
2021/09/02 12:22:52;;;;;;;15.88;8.55;;;20.90;74.60;;;;;;4974448;28;20082;-50
2021/09/02 12:25:21;;;;;;;17.52;8.25;;;21.00;74.00;;;;;;4959023;28;20048;-51
2021/09/02 12:27:52;;;;;;;16.83;8.10;;;21.10;72.80;;;;;;4991151;28;20420;-53
2021/09/02 12:30:42;;;;;;;14.85;7.53;;;21.10;71.90;;;;;;4991989;28;20053;-51
2021/09/02 12:33:19;;;;;;;14.68;8.00;;;21.10;72.00;;;;;;4991838;28;20518;-54
2021/09/02 12:35:46;;;;;;;18.52;8.05;;;21.20;71.10;;;;;;4989935;28;20121;-54
2021/09/02 12:38:38;;;;;;;13.88;7.63;;;21.10;70.60;;;;;;4974196;28;20042;-50
2021/09/02 12:41:25;;;;;;;15.82;8.13;;;21.10;71.40;;;;;;4952634;28;20054;-51
2021/09/02 12:44:11;;;;;;;15.60;8.18;;;21.10;71.10;;;;;;4967425;28;20097;-52